Clear Lake, IA (50428)

12:48 PM CST on November 23, 2014 (GMT -0600)
South of Oak Hills Golf C. | Change Station
CLOSE
Current Station
Personal Weather Station
Location: Clear Lake, IA
Elevation: 1263 ft
Nearby Weather Stations

Elev 1263 ft 43.11 °N, 93.38 °W | Updated 10 seconds ago

Rain
Rain
51.5 °F
Feels Like 51.5 °F
N
5.0
Wind Variable Wind from West
Gusts 6.0 mph

Today
High -- | Low -- °F
--% Chance of Precip.
Yesterday
High -- | Low -- °F
Precip. -- in
7:16 AM 4:43 PM
New Moon, 2% visible
Pressure 29.43 in
Visibility 7.0 miles
Clouds Overcast 500 ft
Dew Point 52 °F
Humidity 100%
Rainfall 0.00 in
Snow Depth Not available.
UV 1 out of 12
Pollen .10 out of 12
Air Quality Not available.
Flu Activity Not available.
METAR KMCW 231753Z AUTO 18008KT 7SM OVC005 11/10 A2943 RMK AO2 RAB24E38 SLP964 P0000 60000 T01060100 10106 20094 58021

More Conditions Fewer Conditions

Pressure 29.43 in
Visibility 7.0 miles
Clouds Overcast 500 ft
Dew Point 52 °F
Humidity 100%
Rainfall 0.00 in
Snow Depth Not available.
UV 1 out of 12
Pollen .10 out of 12
Air Quality Not available.
Flu Activity Not available.
METAR KMCW 231753Z AUTO 18008KT 7SM OVC005 11/10 A2943 RMK AO2 RAB24E38 SLP964 P0000 60000 T01060100 10106 20094 58021

More Conditions Fewer Conditions

10-Day Weather Forecast

Almanac

Astronomy

Nov. 23, 2014 Rise Set
Actual Time
Civil Twilight
Nautical Twilight
Astronomical Twilight
Moon
Length of Visible Light
Length of Day
Tomorrow will be .
, % of the Moon is Illuminated

Today's Extremes

State Highs State Lows

Community

WunderPhotos

Upload Photos

1,773,127 photos uploaded!

WunderBlogs® & News

Nearby

Air Quality

  Air Quality AQ Index Pollutant
Not available.

Snow Depth

Station Depth Elevation

Earthquake Activity

City Distance Mag. Time & Date
Minimum magnitude displayed is 2.5.

Coastal Water Temperatures

Place Temperature

Nearby Weather Stations